createdAt,value
2023-05-22T00:00:16.729Z,7.57
2023-05-22T00:02:43.677Z,6.97
2023-05-22T00:05:10.443Z,7.45
2023-05-22T00:07:37.020Z,7.39
2023-05-22T00:10:03.548Z,7.62
2023-05-22T00:12:30.158Z,7.42
2023-05-22T00:14:56.735Z,7.30
2023-05-22T00:17:23.494Z,6.99
2023-05-22T00:19:50.118Z,7.14
2023-05-22T00:22:16.667Z,7.02
2023-05-22T00:24:43.235Z,7.11
2023-05-22T00:27:09.798Z,7.18
2023-05-22T00:29:36.281Z,6.94
2023-05-22T00:32:02.930Z,7.07
2023-05-22T00:34:29.607Z,7.22
2023-05-22T00:36:56.250Z,7.14
2023-05-22T00:39:22.836Z,7.06
2023-05-22T00:41:49.415Z,7.17
2023-05-22T00:44:16.000Z,6.82
2023-05-22T00:46:42.639Z,6.76
2023-05-22T00:49:09.159Z,6.64
2023-05-22T00:51:35.623Z,6.55
2023-05-22T00:54:02.264Z,7.03
2023-05-22T00:56:28.793Z,6.71
2023-05-22T00:58:55.430Z,6.58
2023-05-22T01:01:22.028Z,6.83
2023-05-22T01:03:48.715Z,6.48
2023-05-22T01:06:15.377Z,6.38
2023-05-22T01:08:41.909Z,6.77
2023-05-22T01:11:08.464Z,6.68
2023-05-22T01:13:35.005Z,6.92
2023-05-22T01:16:01.700Z,6.74
2023-05-22T01:18:28.498Z,6.57
2023-05-22T01:20:54.953Z,6.86
2023-05-22T01:23:21.504Z,6.49
2023-05-22T01:25:48.089Z,6.76
2023-05-22T01:28:14.620Z,6.21
2023-05-22T01:30:41.246Z,6.55
2023-05-22T01:33:08.014Z,6.38
2023-05-22T01:35:34.743Z,6.29
2023-05-22T01:38:01.332Z,6.47
2023-05-22T01:40:27.909Z,6.41
2023-05-22T01:42:54.423Z,6.13
2023-05-22T01:45:21.007Z,6.28
2023-05-22T01:47:47.687Z,6.40
2023-05-22T01:50:14.351Z,6.16
2023-05-22T01:52:40.941Z,6.35
2023-05-22T01:55:07.527Z,6.11
2023-05-22T01:57:34.082Z,6.23
2023-05-22T02:00:00.573Z,5.97
2023-05-22T02:02:27.253Z,6.12
2023-05-22T02:04:53.920Z,6.26
2023-05-22T02:07:20.461Z,6.33
2023-05-22T02:09:46.979Z,6.22
2023-05-22T02:12:13.612Z,6.11
2023-05-22T02:14:40.230Z,5.89
2023-05-22T02:17:06.798Z,6.02
2023-05-22T02:19:33.391Z,6.01
2023-05-22T02:22:00.004Z,5.73
2023-05-22T02:24:26.618Z,5.84
2023-05-22T02:26:53.233Z,5.72
2023-05-22T02:29:19.787Z,5.91
2023-05-22T02:31:46.336Z,5.70
2023-05-22T02:34:15.843Z,5.80
2023-05-22T02:36:42.423Z,5.88
2023-05-22T02:39:08.957Z,6.16
2023-05-22T02:41:35.508Z,5.74
2023-05-22T02:44:02.027Z,5.75
2023-05-22T02:46:28.570Z,5.62
2023-05-22T02:48:55.177Z,5.60
2023-05-22T02:51:21.807Z,5.81
2023-05-22T02:53:48.422Z,5.52
2023-05-22T02:56:14.964Z,5.49
2023-05-22T02:58:41.467Z,5.99
2023-05-22T03:01:08.018Z,5.43
2023-05-22T03:03:34.883Z,5.58
2023-05-22T03:06:01.786Z,5.63
2023-05-22T03:08:28.528Z,5.68
2023-05-22T03:10:55.157Z,5.28
2023-05-22T03:13:21.779Z,5.52
2023-05-22T03:15:48.396Z,5.44
2023-05-22T03:18:14.939Z,5.34
2023-05-22T03:20:41.641Z,5.49
2023-05-22T03:23:08.271Z,5.48
2023-05-22T03:25:34.834Z,5.68
2023-05-22T03:28:01.352Z,5.56
2023-05-22T03:30:27.919Z,5.26
2023-05-22T03:32:54.543Z,5.29
2023-05-22T03:35:21.142Z,5.51
2023-05-22T03:37:47.705Z,5.35
2023-05-22T03:40:14.348Z,5.69
2023-05-22T03:42:40.926Z,5.19
2023-05-22T03:45:07.374Z,5.40
2023-05-22T03:47:33.969Z,5.48
2023-05-22T03:50:00.526Z,5.26
2023-05-22T03:52:27.040Z,4.93
2023-05-22T03:54:53.651Z,5.04
2023-05-22T03:57:20.298Z,5.01
2023-05-22T03:59:46.881Z,5.54
2023-05-22T04:02:13.522Z,5.16
2023-05-22T04:04:40.112Z,5.06
2023-05-22T04:07:06.716Z,5.24
2023-05-22T04:09:33.235Z,5.02
2023-05-22T04:11:59.782Z,5.36
2023-05-22T04:14:26.318Z,5.20
2023-05-22T04:16:52.896Z,5.37
2023-05-22T04:19:19.480Z,5.06
2023-05-22T04:21:46.091Z,5.04
2023-05-22T04:24:12.672Z,5.18
2023-05-22T04:26:41.729Z,5.06
2023-05-22T04:29:09.120Z,5.19
2023-05-22T04:31:35.693Z,4.87
2023-05-22T04:34:02.318Z,4.83
2023-05-22T04:36:28.933Z,5.00
2023-05-22T04:38:55.517Z,4.97
2023-05-22T04:41:22.712Z,4.72
2023-05-22T04:43:49.425Z,4.92
2023-05-22T04:46:15.991Z,5.01
2023-05-22T04:48:42.595Z,4.92
2023-05-22T04:51:09.216Z,4.81
2023-05-22T04:53:35.798Z,5.22
2023-05-22T04:56:02.331Z,4.91
2023-05-22T04:58:28.909Z,4.99
2023-05-22T05:00:55.508Z,5.38
2023-05-22T05:03:22.019Z,5.29
2023-05-22T05:05:48.561Z,5.31
2023-05-22T05:08:15.123Z,5.15
2023-05-22T05:10:41.787Z,5.36
2023-05-22T05:13:08.430Z,5.24
2023-05-22T05:15:34.969Z,5.37
2023-05-22T05:18:01.624Z,5.17
2023-05-22T05:20:28.333Z,5.41
2023-05-22T05:22:54.815Z,5.63
2023-05-22T05:25:21.283Z,5.60
2023-05-22T05:27:47.767Z,5.37
2023-05-22T05:30:14.241Z,5.61
2023-05-22T05:32:40.733Z,5.44
2023-05-22T05:35:07.259Z,5.60
2023-05-22T05:37:33.735Z,5.54
2023-05-22T05:40:00.231Z,5.31
2023-05-22T05:42:26.781Z,5.62
2023-05-22T05:44:53.358Z,5.66
2023-05-22T05:47:19.851Z,5.27
2023-05-22T05:49:46.374Z,5.82
2023-05-22T05:52:12.869Z,5.59
2023-05-22T05:54:39.411Z,5.49
2023-05-22T05:57:05.866Z,5.53
2023-05-22T05:59:32.431Z,5.78
2023-05-22T06:01:58.984Z,5.82
2023-05-22T06:04:25.531Z,5.90
2023-05-22T06:06:52.092Z,5.75
2023-05-22T06:09:18.623Z,5.86
2023-05-22T06:11:45.104Z,5.86
2023-05-22T06:14:11.641Z,5.85
2023-05-22T06:16:38.115Z,6.20
2023-05-22T06:19:04.661Z,6.17
2023-05-22T06:21:31.327Z,5.86
2023-05-22T06:23:57.832Z,5.93
2023-05-22T06:26:24.314Z,5.85
2023-05-22T06:28:50.869Z,5.84
2023-05-22T06:31:17.334Z,5.68
2023-05-22T06:33:43.939Z,5.78
2023-05-22T06:36:10.513Z,5.84
2023-05-22T06:38:37.099Z,6.00
2023-05-22T06:41:03.706Z,5.52
2023-05-22T06:43:30.220Z,5.96
2023-05-22T06:45:56.902Z,6.07
2023-05-22T06:48:23.480Z,5.87
2023-05-22T06:50:50.089Z,5.59
2023-05-22T06:53:16.570Z,5.91
2023-05-22T06:55:43.180Z,5.89
2023-05-22T06:58:09.732Z,5.90
2023-05-22T07:00:36.320Z,5.53
2023-05-22T07:03:02.922Z,5.70
2023-05-22T07:05:29.547Z,5.91
2023-05-22T07:07:56.290Z,5.93
2023-05-22T07:10:22.841Z,5.70
2023-05-22T07:12:49.387Z,5.84
2023-05-22T07:15:15.894Z,5.89
2023-05-22T07:17:42.445Z,5.76
2023-05-22T07:20:09.010Z,6.14
2023-05-22T07:22:35.621Z,6.27
2023-05-22T07:25:02.222Z,6.38
2023-05-22T07:27:28.782Z,6.22
2023-05-22T07:29:55.359Z,6.28
2023-05-22T07:32:21.977Z,6.37
2023-05-22T07:34:48.608Z,6.38
2023-05-22T07:37:15.233Z,6.24
2023-05-22T07:39:41.767Z,6.47
2023-05-22T07:42:08.310Z,6.49
2023-05-22T07:44:34.916Z,6.22
2023-05-22T07:47:01.474Z,6.52
2023-05-22T07:49:28.080Z,6.37
2023-05-22T07:51:54.626Z,6.57
2023-05-22T07:54:21.223Z,6.66
2023-05-22T07:56:47.833Z,6.35
2023-05-22T07:59:14.478Z,6.17
2023-05-22T08:01:41.097Z,6.37
2023-05-22T08:04:07.994Z,6.36
2023-05-22T08:06:34.877Z,6.25
2023-05-22T08:09:01.643Z,6.30
2023-05-22T08:11:28.184Z,6.46
2023-05-22T08:13:54.767Z,6.26
2023-05-22T08:16:21.408Z,6.15
2023-05-22T08:18:47.988Z,6.15
2023-05-22T08:21:14.523Z,6.50
2023-05-22T08:23:41.120Z,6.67
2023-05-22T08:26:07.701Z,6.19
2023-05-22T08:28:34.288Z,6.28
2023-05-22T08:31:00.881Z,6.12
2023-05-22T08:33:27.483Z,6.14
2023-05-22T08:35:54.051Z,6.31
2023-05-22T08:38:20.593Z,6.26
2023-05-22T08:40:47.352Z,6.11
2023-05-22T08:43:13.965Z,6.38
2023-05-22T08:45:40.547Z,6.00
2023-05-22T08:48:07.207Z,6.21
2023-05-22T08:50:33.908Z,6.39
2023-05-22T08:53:00.469Z,6.36
2023-05-22T08:55:26.998Z,6.22
2023-05-22T08:57:53.646Z,6.31
2023-05-22T09:00:20.255Z,6.29
2023-05-22T09:02:47.029Z,6.39
2023-05-22T09:05:13.572Z,6.33
2023-05-22T09:07:40.085Z,6.21
2023-05-22T09:10:06.655Z,6.38
2023-05-22T09:12:33.219Z,6.41
2023-05-22T09:14:59.766Z,6.28
2023-05-22T09:17:26.293Z,6.32
2023-05-22T09:19:52.881Z,6.33
2023-05-22T09:22:19.380Z,6.04
2023-05-22T09:24:46.479Z,6.42
2023-05-22T09:27:13.037Z,6.39
2023-05-22T09:29:39.643Z,6.12
2023-05-22T09:32:06.128Z,6.31
2023-05-22T09:34:32.619Z,6.23
2023-05-22T09:36:59.129Z,6.59
2023-05-22T09:39:25.685Z,6.82
2023-05-22T09:41:52.188Z,6.59
2023-05-22T09:44:18.684Z,6.60
2023-05-22T09:46:45.460Z,6.23
2023-05-22T09:49:15.072Z,6.66
2023-05-22T09:51:42.924Z,6.69
2023-05-22T09:54:09.561Z,6.71
2023-05-22T09:56:39.730Z,6.97
2023-05-22T09:59:06.908Z,6.58
2023-05-22T10:01:33.515Z,6.52
2023-05-22T10:04:00.094Z,6.50
2023-05-22T10:06:26.761Z,6.35
2023-05-22T10:08:53.306Z,6.66
2023-05-22T10:11:19.894Z,6.77
2023-05-22T10:13:46.526Z,6.64
2023-05-22T10:16:13.157Z,6.64
2023-05-22T10:18:39.819Z,6.66
2023-05-22T10:21:06.487Z,6.68
2023-05-22T10:23:33.028Z,6.55
2023-05-22T10:25:59.703Z,6.76
2023-05-22T10:28:26.257Z,7.08
2023-05-22T10:30:52.792Z,6.67
2023-05-22T10:33:19.497Z,6.72
2023-05-22T10:35:46.143Z,6.33
2023-05-22T10:38:12.891Z,6.18
2023-05-22T10:40:39.520Z,6.65
2023-05-22T10:43:06.166Z,6.56
2023-05-22T10:45:32.995Z,6.36
2023-05-22T10:47:59.881Z,6.67
2023-05-22T10:50:28.516Z,6.34
2023-05-22T10:52:55.017Z,6.40
2023-05-22T10:55:21.518Z,6.29
2023-05-22T10:57:48.213Z,6.42
2023-05-22T11:00:14.976Z,6.29
2023-05-22T11:02:42.418Z,6.51
2023-05-22T11:05:09.138Z,6.48
2023-05-22T11:07:35.764Z,6.96
2023-05-22T11:10:02.363Z,6.50
2023-05-22T11:12:28.986Z,6.68
2023-05-22T11:14:55.605Z,6.44
2023-05-22T11:17:22.155Z,6.58
2023-05-22T11:19:48.903Z,6.46
2023-05-22T11:22:15.504Z,6.75
2023-05-22T11:24:42.125Z,6.30
2023-05-22T11:27:08.784Z,6.41
2023-05-22T11:29:35.449Z,6.42
2023-05-22T11:32:01.968Z,6.15
2023-05-22T11:34:28.462Z,6.54
2023-05-22T11:36:55.078Z,6.84
2023-05-22T11:39:21.681Z,7.11
2023-05-22T11:41:48.243Z,6.77
2023-05-22T11:44:14.777Z,6.85
2023-05-22T11:46:41.412Z,7.14
2023-05-22T11:49:08.016Z,6.64
2023-05-22T11:51:34.570Z,7.11
2023-05-22T11:54:01.066Z,7.05
2023-05-22T11:56:27.554Z,7.20
2023-05-22T11:58:54.008Z,7.10
2023-05-22T12:01:20.499Z,7.25
2023-05-22T12:03:47.146Z,6.88
2023-05-22T12:06:15.809Z,7.31
2023-05-22T12:08:43.575Z,7.55
2023-05-22T12:11:10.129Z,7.16
2023-05-22T12:13:36.624Z,7.22
2023-05-22T12:16:03.152Z,7.41
2023-05-22T12:18:29.663Z,7.28
2023-05-22T12:20:56.269Z,7.29
2023-05-22T12:23:22.836Z,7.73
2023-05-22T12:25:49.416Z,7.55
2023-05-22T12:28:15.950Z,7.49
2023-05-22T12:30:42.607Z,7.25
2023-05-22T12:33:09.358Z,7.74
2023-05-22T12:35:36.058Z,6.94
2023-05-22T12:38:02.586Z,7.58
2023-05-22T12:40:29.180Z,7.46
2023-05-22T12:42:55.785Z,7.18
2023-05-22T12:45:22.451Z,7.20
2023-05-22T12:47:49.128Z,6.96
2023-05-22T12:50:15.682Z,7.19
2023-05-22T12:52:42.241Z,7.22
2023-05-22T12:55:08.844Z,7.41
2023-05-22T12:57:35.408Z,7.12
2023-05-22T13:00:03.004Z,7.13
2023-05-22T13:02:29.633Z,7.03
2023-05-22T13:04:56.235Z,7.49
2023-05-22T13:07:22.861Z,7.43
2023-05-22T13:09:49.489Z,9.89
2023-05-22T13:12:16.144Z,9.64
2023-05-22T13:14:42.843Z,8.49
2023-05-22T13:17:09.472Z,8.45
2023-05-22T13:19:36.142Z,8.98
2023-05-22T13:22:02.791Z,8.69
2023-05-22T13:24:29.404Z,8.41
2023-05-22T13:26:55.957Z,8.51
2023-05-22T13:29:22.506Z,8.51
2023-05-22T13:31:49.077Z,8.55
2023-05-22T13:34:15.703Z,8.12
2023-05-22T13:36:42.408Z,8.41
2023-05-22T13:39:08.941Z,9.11
2023-05-22T13:41:35.469Z,9.25
2023-05-22T13:44:02.023Z,9.18
2023-05-22T13:46:28.594Z,9.17
2023-05-22T13:48:55.160Z,9.11
2023-05-22T13:51:21.772Z,8.84
2023-05-22T13:53:48.336Z,8.84
2023-05-22T13:56:14.934Z,8.98
2023-05-22T13:58:41.484Z,8.84
2023-05-22T14:01:08.086Z,8.44
2023-05-22T14:03:34.777Z,8.27
2023-05-22T14:06:01.360Z,8.74
2023-05-22T14:08:27.950Z,9.03
2023-05-22T14:10:54.486Z,9.86
2023-05-22T14:13:21.050Z,9.48
2023-05-22T14:15:47.637Z,10.16
2023-05-22T14:18:14.315Z,10.42
2023-05-22T14:20:40.926Z,10.09
2023-05-22T14:23:07.464Z,10.46
2023-05-22T14:25:34.028Z,10.26
2023-05-22T14:28:00.607Z,10.17
2023-05-22T14:30:27.199Z,9.78
2023-05-22T14:32:53.956Z,10.19
2023-05-22T14:35:20.713Z,9.64
2023-05-22T14:37:47.369Z,9.41
2023-05-22T14:40:13.950Z,9.34
2023-05-22T14:42:40.520Z,9.66
2023-05-22T14:45:07.054Z,9.45
2023-05-22T14:47:33.712Z,8.97
2023-05-22T14:50:14.806Z,9.29
2023-05-22T14:52:45.351Z,9.14
2023-05-22T14:55:11.937Z,9.29
2023-05-22T14:57:38.510Z,11.41
2023-05-22T15:00:05.083Z,11.70
2023-05-22T15:02:31.708Z,11.66
2023-05-22T15:04:58.411Z,13.66
2023-05-22T15:07:32.373Z,13.99
2023-05-22T15:10:09.381Z,14.13
2023-05-22T15:12:35.971Z,15.13
2023-05-22T15:15:02.585Z,13.85
2023-05-22T15:17:29.265Z,13.82
2023-05-22T15:19:55.924Z,13.65
2023-05-22T15:22:22.514Z,13.95
2023-05-22T15:27:14.705Z,13.63
2023-05-22T15:29:41.328Z,13.11
2023-05-22T15:32:07.917Z,12.25
2023-05-22T15:34:34.425Z,12.48
2023-05-22T15:37:00.882Z,13.00
2023-05-22T15:39:27.449Z,14.74
2023-05-22T15:42:05.181Z,14.44
2023-05-22T15:44:32.896Z,13.82
2023-05-22T15:46:59.515Z,14.10
2023-05-22T15:49:27.965Z,14.20
2023-05-22T15:51:55.999Z,13.67
2023-05-22T15:54:23.934Z,14.45
2023-05-22T15:56:50.503Z,13.50
2023-05-22T15:59:17.102Z,13.31
2023-05-22T16:01:43.911Z,12.86
2023-05-22T16:04:10.764Z,12.77
2023-05-22T16:06:37.348Z,12.69
2023-05-22T16:09:03.938Z,12.19
2023-05-22T16:11:30.478Z,12.05
2023-05-22T16:13:57.070Z,12.20
2023-05-22T16:16:23.740Z,11.78
2023-05-22T16:18:50.342Z,11.46
2023-05-22T16:21:16.922Z,10.89
2023-05-22T16:23:43.466Z,9.71
2023-05-22T16:26:10.018Z,10.42
2023-05-22T16:28:36.573Z,9.53
2023-05-22T16:31:03.147Z,10.33
2023-05-22T16:33:29.743Z,10.36
2023-05-22T16:35:56.405Z,10.83
2023-05-22T16:38:23.013Z,10.42
2023-05-22T16:40:49.542Z,10.07
2023-05-22T16:43:16.192Z,10.20
2023-05-22T16:45:42.926Z,10.64
2023-05-22T16:48:09.624Z,10.64
2023-05-22T16:50:36.271Z,10.42
2023-05-22T16:53:02.877Z,10.18
2023-05-22T16:55:29.508Z,10.18
2023-05-22T16:57:56.087Z,9.75
2023-05-22T17:00:22.861Z,8.72
2023-05-22T17:02:49.567Z,8.92
2023-05-22T17:05:16.187Z,9.19
2023-05-22T17:07:42.861Z,9.34
2023-05-22T17:10:09.400Z,8.65
2023-05-22T17:12:35.968Z,8.48
2023-05-22T17:15:02.615Z,8.21
2023-05-22T17:17:29.262Z,8.22
2023-05-22T17:19:55.888Z,8.53
2023-05-22T17:22:25.492Z,8.32
2023-05-22T17:24:52.008Z,8.48
2023-05-22T17:27:34.424Z,8.16
2023-05-22T17:30:02.356Z,7.89
2023-05-22T17:32:29.234Z,7.97
2023-05-22T17:34:55.939Z,8.17
2023-05-22T17:37:22.532Z,7.96
2023-05-22T17:39:49.102Z,7.58
2023-05-22T17:42:15.674Z,7.71
2023-05-22T17:44:42.159Z,7.52
2023-05-22T17:47:08.618Z,7.54
2023-05-22T17:49:35.131Z,7.61
2023-05-22T17:52:01.696Z,7.88
2023-05-22T17:54:28.309Z,7.93
2023-05-22T17:56:54.844Z,7.57
2023-05-22T17:59:21.391Z,7.86
2023-05-22T18:01:48.006Z,8.73
2023-05-22T18:04:14.607Z,8.51
2023-05-22T18:06:41.168Z,7.96
2023-05-22T18:09:07.753Z,7.89
2023-05-22T18:11:34.327Z,8.04
2023-05-22T18:14:00.830Z,7.93
2023-05-22T18:16:27.361Z,8.35
2023-05-22T18:18:53.966Z,8.36
2023-05-22T18:21:20.560Z,8.25
2023-05-22T18:23:47.126Z,9.01
2023-05-22T18:26:13.855Z,9.75
2023-05-22T18:28:40.466Z,9.54
2023-05-22T18:31:07.085Z,11.70
2023-05-22T18:33:33.736Z,11.22
2023-05-22T18:36:00.228Z,11.45
2023-05-22T18:38:26.746Z,11.94
2023-05-22T18:40:53.303Z,11.83
2023-05-22T18:43:19.910Z,12.56
2023-05-22T18:45:46.444Z,12.58
2023-05-22T18:48:13.060Z,11.82
2023-05-22T18:50:40.068Z,12.39
2023-05-22T18:53:06.733Z,12.16
2023-05-22T18:55:33.250Z,11.79
2023-05-22T18:57:59.769Z,12.18
2023-05-22T19:00:26.384Z,12.04
2023-05-22T19:02:53.001Z,11.57
2023-05-22T19:05:19.494Z,10.72
2023-05-22T19:07:45.976Z,10.79
2023-05-22T19:10:12.568Z,10.98
2023-05-22T19:12:39.060Z,10.81
2023-05-22T19:15:05.593Z,11.14
2023-05-22T19:17:32.207Z,11.07
2023-05-22T19:19:58.743Z,10.65
2023-05-22T19:22:25.261Z,10.96
2023-05-22T19:24:51.875Z,11.02
2023-05-22T19:27:18.468Z,10.55
2023-05-22T19:29:45.097Z,10.64
2023-05-22T19:32:11.688Z,10.72
2023-05-22T19:34:38.209Z,10.48
2023-05-22T19:37:04.877Z,10.30
2023-05-22T19:39:31.720Z,10.46
2023-05-22T19:41:58.374Z,11.14
2023-05-22T19:44:24.999Z,10.28
2023-05-22T19:46:51.640Z,10.28
2023-05-22T19:49:18.303Z,10.00
2023-05-22T19:51:44.911Z,10.36
2023-05-22T19:54:11.565Z,10.20
2023-05-22T19:56:38.022Z,10.08
2023-05-22T19:59:04.736Z,12.14
2023-05-22T20:01:31.233Z,11.96
2023-05-22T20:03:57.948Z,11.48
2023-05-22T20:06:24.493Z,11.95
2023-05-22T20:08:51.115Z,11.47
2023-05-22T20:11:17.675Z,11.87
2023-05-22T20:13:45.550Z,11.52
2023-05-22T20:16:12.214Z,10.89
2023-05-22T20:18:38.820Z,10.79
2023-05-22T20:21:05.395Z,10.52
2023-05-22T20:23:31.984Z,10.05
2023-05-22T20:25:58.528Z,10.31
2023-05-22T20:28:25.057Z,10.03
2023-05-22T20:30:51.641Z,10.76
2023-05-22T20:33:18.226Z,10.24
2023-05-22T20:35:44.940Z,10.36
2023-05-22T20:38:11.601Z,10.15
2023-05-22T20:40:38.120Z,10.36
2023-05-22T20:43:04.789Z,10.00
2023-05-22T20:45:31.272Z,10.61
2023-05-22T20:47:57.931Z,10.79
2023-05-22T20:50:24.533Z,10.35
2023-05-22T20:52:51.157Z,10.17
2023-05-22T20:55:17.733Z,10.14
2023-05-22T20:57:44.200Z,10.44
2023-05-22T21:00:10.697Z,10.39
2023-05-22T21:02:37.241Z,10.40
2023-05-22T21:05:03.989Z,10.32
2023-05-22T21:07:30.494Z,10.28
2023-05-22T21:09:57.152Z,10.47
2023-05-22T21:12:23.789Z,10.43
2023-05-22T21:14:50.545Z,10.40
2023-05-22T21:17:17.167Z,9.64
2023-05-22T21:19:43.727Z,9.99
2023-05-22T21:22:10.281Z,9.99
2023-05-22T21:24:36.837Z,9.56
2023-05-22T21:27:03.381Z,9.72
2023-05-22T21:29:29.883Z,10.20
2023-05-22T21:31:56.562Z,9.91
2023-05-22T21:34:23.217Z,9.96
2023-05-22T21:36:49.791Z,10.00
2023-05-22T21:39:16.356Z,9.94
2023-05-22T21:41:42.899Z,9.72
2023-05-22T21:44:09.547Z,9.79
2023-05-22T21:46:36.139Z,10.02
2023-05-22T21:49:02.736Z,9.61
2023-05-22T21:51:29.290Z,9.42
2023-05-22T21:53:55.823Z,9.67
2023-05-22T21:56:22.367Z,9.50
2023-05-22T21:58:48.940Z,9.60
2023-05-22T22:01:15.512Z,9.46
2023-05-22T22:03:42.178Z,9.69
2023-05-22T22:06:08.866Z,9.65
2023-05-22T22:08:35.547Z,9.63
2023-05-22T22:11:02.124Z,9.35
2023-05-22T22:13:28.669Z,9.35
2023-05-22T22:15:55.199Z,9.24
2023-05-22T22:18:21.767Z,9.37
2023-05-22T22:20:48.524Z,9.33
2023-05-22T22:23:15.169Z,9.49
2023-05-22T22:25:41.634Z,9.15
2023-05-22T22:28:08.195Z,9.56
2023-05-22T22:30:34.749Z,9.09
2023-05-22T22:33:01.407Z,9.15
2023-05-22T22:35:28.156Z,8.95
2023-05-22T22:37:54.674Z,9.24
2023-05-22T22:40:21.264Z,9.22
2023-05-22T22:42:47.869Z,9.39
2023-05-22T22:45:14.338Z,8.77
2023-05-22T22:47:40.854Z,8.77
2023-05-22T22:50:07.500Z,9.19
2023-05-22T22:52:34.093Z,9.17
2023-05-22T22:55:01.694Z,8.86
2023-05-22T22:57:28.505Z,9.30
2023-05-22T22:59:55.063Z,9.06
2023-05-22T23:02:21.679Z,9.02
2023-05-22T23:04:48.411Z,9.06
2023-05-22T23:07:14.971Z,8.66
2023-05-22T23:09:41.449Z,9.05
2023-05-22T23:12:08.017Z,8.76
2023-05-22T23:14:34.552Z,8.79
2023-05-22T23:17:01.039Z,8.57
2023-05-22T23:19:27.759Z,8.70
2023-05-22T23:21:54.288Z,8.52
2023-05-22T23:24:20.854Z,8.80
2023-05-22T23:29:28.266Z,8.70
2023-05-22T23:31:54.883Z,8.67
2023-05-22T23:34:21.509Z,8.62
2023-05-22T23:36:48.051Z,8.56
2023-05-22T23:39:14.565Z,8.40
2023-05-22T23:41:41.116Z,8.72
2023-05-22T23:44:07.638Z,8.81
2023-05-22T23:46:34.225Z,8.92
2023-05-22T23:49:00.770Z,8.42
2023-05-22T23:51:27.278Z,8.42
2023-05-22T23:53:53.832Z,8.41
2023-05-22T23:56:21.409Z,8.44
2023-05-22T23:58:48.935Z,8.34
